createdAt,value
2023-05-21T00:00:47.203Z,95279.75
2023-05-21T00:03:33.975Z,95272.56
2023-05-21T00:06:21.262Z,95276.81
2023-05-21T00:09:08.092Z,95277.25
2023-05-21T00:11:54.287Z,95267.72
2023-05-21T00:14:40.021Z,95266.84
2023-05-21T00:17:26.293Z,95279.09
2023-05-21T00:20:13.093Z,95266.72
2023-05-21T00:23:05.353Z,95278.53
2023-05-21T00:25:53.728Z,95278.53
2023-05-21T00:28:39.804Z,95268.94
2023-05-21T00:31:25.792Z,95269.75
2023-05-21T00:34:13.867Z,95269.75
2023-05-21T00:36:59.595Z,95270.50
2023-05-21T00:39:45.656Z,95257.78
2023-05-21T00:42:31.650Z,95269.47
2023-05-21T00:45:18.284Z,95263.84
2023-05-21T00:48:05.143Z,95264.59
2023-05-21T00:50:51.079Z,95266.09
2023-05-21T00:53:37.128Z,95268.41
2023-05-21T00:56:24.236Z,95261.25
2023-05-21T00:59:10.550Z,95267.47
2023-05-21T01:01:57.356Z,95257.53
2023-05-21T01:04:43.425Z,95263.66
2023-05-21T01:07:29.487Z,95246.75
2023-05-21T01:10:15.470Z,95252.94
2023-05-21T01:13:01.662Z,95253.56
2023-05-21T01:15:47.958Z,95253.50
2023-05-21T01:18:44.452Z,95257.31
2023-05-21T01:21:31.382Z,95263.88
2023-05-21T01:24:18.199Z,95256.66
2023-05-21T01:27:07.717Z,95252.31
2023-05-21T01:29:53.994Z,95256.94
2023-05-21T01:32:49.967Z,95255.16
2023-05-21T01:36:24.490Z,95244.78
2023-05-21T01:39:16.994Z,95256.59
2023-05-21T01:42:04.379Z,95255.44
2023-05-21T01:44:55.588Z,95247.00
2023-05-21T01:47:42.463Z,95248.59
2023-05-21T01:50:29.348Z,95242.78
2023-05-21T01:53:15.926Z,95249.38
2023-05-21T01:56:02.956Z,95253.25
2023-05-21T01:58:50.266Z,95246.13
2023-05-21T02:01:36.595Z,95244.63
2023-05-21T02:04:22.773Z,95234.41
2023-05-21T02:07:10.341Z,95238.38
2023-05-21T02:09:56.564Z,95228.16
2023-05-21T02:12:43.352Z,95229.75
2023-05-21T02:16:01.839Z,95234.34
2023-05-21T02:18:51.585Z,95221.03
2023-05-21T02:21:37.743Z,95215.16
2023-05-21T02:24:24.590Z,95207.66
2023-05-21T02:27:10.743Z,95223.78
2023-05-21T02:29:56.844Z,95235.84
2023-05-21T02:32:43.839Z,95227.84
2023-05-21T02:35:30.042Z,95225.47
2023-05-21T02:38:19.584Z,95231.38
2023-05-21T02:41:05.872Z,95223.88
2023-05-21T02:43:51.779Z,95226.63
2023-05-21T02:46:38.742Z,95226.19
2023-05-21T02:49:26.171Z,95227.31
2023-05-21T02:52:12.336Z,95233.22
2023-05-21T02:54:59.568Z,95230.06
2023-05-21T02:57:45.620Z,95223.44
2023-05-21T03:00:31.766Z,95235.50
2023-05-21T03:03:19.660Z,95219.13
2023-05-21T03:06:05.930Z,95237.09
2023-05-21T03:08:51.780Z,95232.34
2023-05-21T03:11:40.437Z,95235.81
2023-05-21T03:14:26.587Z,95230.69
2023-05-21T03:17:14.208Z,95238.53
2023-05-21T03:20:00.615Z,95225.56
2023-05-21T03:22:46.772Z,95240.97
2023-05-21T03:25:33.064Z,95239.38
2023-05-21T03:28:19.331Z,95243.34
2023-05-21T03:31:07.391Z,95229.97
2023-05-21T03:34:12.460Z,95231.63
2023-05-21T03:36:58.220Z,95241.06
2023-05-21T03:39:45.965Z,95236.41
2023-05-21T03:42:32.068Z,95237.63
2023-05-21T03:45:18.288Z,95225.03
2023-05-21T03:48:19.985Z,95237.25
2023-05-21T03:51:11.010Z,95236.41
2023-05-21T03:54:01.567Z,95230.94
2023-05-21T03:56:47.711Z,95234.81
2023-05-21T03:59:33.969Z,95235.66
2023-05-21T04:02:22.283Z,95236.41
2023-05-21T04:05:09.575Z,95219.13
2023-05-21T04:08:22.016Z,95228.66
2023-05-21T04:11:07.908Z,95225.19
2023-05-21T04:13:55.826Z,95225.53
2023-05-21T04:16:45.162Z,95224.75
2023-05-21T04:19:34.185Z,95214.56
2023-05-21T04:22:23.616Z,95214.56
2023-05-21T04:28:31.882Z,95203.63
2023-05-21T04:31:17.946Z,95221.50
2023-05-21T04:34:04.386Z,95215.28
2023-05-21T04:36:52.167Z,95215.28
2023-05-21T04:39:38.522Z,95216.53
2023-05-21T04:42:24.824Z,95211.94
2023-05-21T04:45:11.991Z,95233.00
2023-05-21T04:48:00.907Z,95222.78
2023-05-21T04:50:48.728Z,95225.06
2023-05-21T04:53:36.042Z,95228.34
2023-05-21T04:56:26.659Z,95230.97
2023-05-21T04:59:13.099Z,95236.09
2023-05-21T05:01:59.291Z,95231.06
2023-05-21T05:04:45.464Z,95237.72
2023-05-21T05:07:31.746Z,95229.97
2023-05-21T05:10:17.722Z,95235.88
2023-05-21T05:13:04.047Z,95235.19
2023-05-21T05:15:51.488Z,95226.97
2023-05-21T05:18:44.332Z,95234.88
2023-05-21T05:21:31.879Z,95242.84
2023-05-21T05:24:18.979Z,95238.25
2023-05-21T05:27:05.871Z,95239.09
2023-05-21T05:29:52.139Z,95246.25
2023-05-21T05:32:38.389Z,95227.47
2023-05-21T05:35:24.431Z,95233.06
2023-05-21T05:38:10.618Z,95238.69
2023-05-21T05:40:56.639Z,95229.34
2023-05-21T05:43:42.608Z,95230.56
2023-05-21T05:46:29.570Z,95228.69
2023-05-21T05:49:17.032Z,95226.31
2023-05-21T05:52:03.710Z,95224.16
2023-05-21T05:54:49.809Z,95223.00
2023-05-21T05:57:36.102Z,95230.84
2023-05-21T06:00:27.438Z,95220.34
2023-05-21T06:03:20.195Z,95220.25
2023-05-21T06:06:12.221Z,95215.22
2023-05-21T06:08:58.747Z,95224.22
2023-05-21T06:11:44.938Z,95192.22
2023-05-21T06:14:31.092Z,95203.16
2023-05-21T06:17:17.508Z,95204.66
2023-05-21T06:20:04.336Z,95205.16
2023-05-21T06:22:50.194Z,95196.53
2023-05-21T06:25:38.353Z,95197.38
2023-05-21T06:28:25.151Z,95192.69
2023-05-21T06:31:44.160Z,95198.69
2023-05-21T06:34:30.182Z,95187.75
2023-05-21T06:37:20.118Z,95196.50
2023-05-21T06:40:07.600Z,95188.72
2023-05-21T06:42:53.819Z,95187.22
2023-05-21T06:45:58.248Z,95181.06
2023-05-21T06:48:56.148Z,95174.88
2023-05-21T06:51:42.271Z,95183.50
2023-05-21T06:54:30.165Z,95184.44
2023-05-21T06:57:16.631Z,95163.19
2023-05-21T07:00:03.149Z,95172.41
2023-05-21T07:02:52.062Z,95170.88
2023-05-21T07:05:38.807Z,95162.31
2023-05-21T07:08:25.214Z,95165.53
2023-05-21T07:11:11.161Z,95162.13
2023-05-21T07:13:58.743Z,95169.66
2023-05-21T07:16:45.156Z,95168.56
2023-05-21T07:19:32.571Z,95166.25
2023-05-21T07:22:19.248Z,95149.84
2023-05-21T07:25:07.295Z,95159.50
2023-05-21T07:27:53.403Z,95150.19
2023-05-21T07:30:39.707Z,95166.00
2023-05-21T07:33:29.949Z,95140.97
2023-05-21T07:36:16.984Z,95153.00
2023-05-21T07:39:04.281Z,95152.25
2023-05-21T07:41:51.487Z,95164.16
2023-05-21T07:44:37.802Z,95152.41
2023-05-21T07:47:23.945Z,95136.09
2023-05-21T07:50:11.663Z,95150.34
2023-05-21T07:53:05.283Z,95152.44
2023-05-21T07:55:54.065Z,95149.78
2023-05-21T07:58:48.084Z,95145.94
2023-05-21T08:01:37.717Z,95150.75
2023-05-21T08:04:24.622Z,95155.59
2023-05-21T08:07:13.090Z,95141.94
2023-05-21T08:10:00.243Z,95148.72
2023-05-21T08:12:48.245Z,95128.72
2023-05-21T08:15:35.354Z,95144.91
2023-05-21T08:18:24.216Z,95141.84
2023-05-21T08:21:13.386Z,95146.63
2023-05-21T08:24:00.770Z,95135.25
2023-05-21T08:26:49.896Z,95151.41
2023-05-21T08:29:38.424Z,95145.94
2023-05-21T08:32:27.289Z,95138.88
2023-05-21T08:35:14.350Z,95149.13
2023-05-21T08:38:19.847Z,95148.78
2023-05-21T08:41:27.156Z,95150.78
2023-05-21T08:44:16.795Z,95149.25
2023-05-21T08:47:08.685Z,95157.16
2023-05-21T08:49:55.542Z,95150.09
2023-05-21T08:52:42.785Z,95152.81
2023-05-21T08:55:29.921Z,95134.81
2023-05-21T08:58:16.785Z,95156.44
2023-05-21T09:01:04.988Z,95144.66
2023-05-21T09:03:59.071Z,95162.75
2023-05-21T09:06:52.351Z,95164.31
2023-05-21T09:10:05.504Z,95158.84
2023-05-21T09:12:52.526Z,95147.84
2023-05-21T09:15:39.547Z,95140.78
2023-05-21T09:18:28.076Z,95162.81
2023-05-21T09:21:28.076Z,95160.88
2023-05-21T09:24:32.497Z,95158.94
2023-05-21T09:27:20.319Z,95139.31
2023-05-21T09:30:14.716Z,95151.13
2023-05-21T09:33:02.071Z,95159.03
2023-05-21T09:35:48.975Z,95162.22
2023-05-21T09:38:36.155Z,95141.03
2023-05-21T09:41:33.638Z,95162.28
2023-05-21T09:44:20.953Z,95152.09
2023-05-21T09:47:10.319Z,95159.19
2023-05-21T09:50:01.318Z,95177.69
2023-05-21T09:52:50.607Z,95154.91
2023-05-21T09:55:37.265Z,95167.88
2023-05-21T09:58:24.014Z,95167.91
2023-05-21T10:01:11.620Z,95167.13
2023-05-21T10:03:59.299Z,95156.16
2023-05-21T10:06:48.052Z,95172.31
2023-05-21T10:09:34.733Z,95155.44
2023-05-21T10:12:24.261Z,95145.97
2023-05-21T10:15:17.729Z,95184.53
2023-05-21T10:18:07.041Z,95161.72
2023-05-21T10:20:54.212Z,95167.25
2023-05-21T10:23:42.041Z,95160.94
2023-05-21T10:26:28.862Z,95162.53
2023-05-21T10:29:18.172Z,95162.13
2023-05-21T10:32:06.834Z,95177.47
2023-05-21T10:34:59.386Z,95183.78
2023-05-21T10:37:47.834Z,95193.97
2023-05-21T10:40:36.448Z,95182.59
2023-05-21T10:43:43.747Z,95192.41
2023-05-21T10:47:00.843Z,95181.41
2023-05-21T10:50:08.618Z,95183.75
2023-05-21T10:53:25.666Z,95170.38
2023-05-21T10:56:18.105Z,95190.84
2023-05-21T10:59:22.186Z,95186.91
2023-05-21T11:02:10.059Z,95179.44
2023-05-21T11:05:04.195Z,95183.38
2023-05-21T11:07:52.887Z,95182.94
2023-05-21T11:10:40.883Z,95175.47
2023-05-21T11:13:28.689Z,95181.38
2023-05-21T11:16:16.107Z,95186.09
2023-05-21T11:19:03.036Z,95188.06
2023-05-21T11:21:52.036Z,95188.41
2023-05-21T11:24:39.860Z,95181.72
2023-05-21T11:27:38.061Z,95188.41
2023-05-21T11:30:24.198Z,95179.34
2023-05-21T11:33:11.423Z,95181.28
2023-05-21T11:36:00.611Z,95181.69
2023-05-21T11:39:15.334Z,95182.84
2023-05-21T11:42:04.447Z,95185.97
2023-05-21T11:44:50.820Z,95175.75
2023-05-21T11:47:36.969Z,95163.94
2023-05-21T11:50:23.528Z,95172.56
2023-05-21T11:53:12.284Z,95163.09
2023-05-21T11:55:59.906Z,95153.97
2023-05-21T11:58:46.816Z,95160.63
2023-05-21T12:01:32.709Z,95154.97
2023-05-21T12:04:18.546Z,95157.72
2023-05-21T12:07:08.188Z,95141.88
2023-05-21T12:09:54.727Z,95145.78
2023-05-21T12:12:54.005Z,95151.59
2023-05-21T12:15:41.982Z,95149.53
2023-05-21T12:18:28.320Z,95140.72
2023-05-21T12:21:14.418Z,95131.91
2023-05-21T12:24:03.520Z,95137.31
2023-05-21T12:26:50.100Z,95128.16
2023-05-21T12:29:38.384Z,95128.00
2023-05-21T12:32:27.809Z,95130.28
2023-05-21T12:35:24.376Z,95129.06
2023-05-21T12:38:10.729Z,95135.00
2023-05-21T12:41:03.503Z,95139.03
2023-05-21T12:43:50.877Z,95110.69
2023-05-21T12:46:37.266Z,95136.72
2023-05-21T12:49:37.910Z,95131.66
2023-05-21T12:52:24.608Z,95133.38
2023-05-21T12:55:13.748Z,95128.66
2023-05-21T12:58:08.418Z,95125.91
2023-05-21T13:00:56.611Z,95116.88
2023-05-21T13:03:43.267Z,95110.94
2023-05-21T13:06:29.322Z,95118.06
2023-05-21T13:09:15.760Z,95117.28
2023-05-21T13:12:01.600Z,95114.97
2023-05-21T13:14:47.976Z,95109.88
2023-05-21T13:17:37.025Z,95108.28
2023-05-21T13:20:26.606Z,95118.19
2023-05-21T13:23:12.578Z,95103.28
2023-05-21T13:25:58.720Z,95100.97
2023-05-21T13:28:44.644Z,95104.09
2023-05-21T13:31:30.463Z,95106.91
2023-05-21T13:34:16.414Z,95108.91
2023-05-21T13:37:02.634Z,95107.72
2023-05-21T13:39:48.411Z,95115.22
2023-05-21T13:42:35.307Z,95104.97
2023-05-21T13:45:29.143Z,95101.47
2023-05-21T13:48:15.226Z,95106.59
2023-05-21T13:51:00.974Z,95109.78
2023-05-21T13:53:46.777Z,95115.72
2023-05-21T13:56:33.959Z,95111.31
2023-05-21T13:59:19.767Z,95115.88
2023-05-21T14:02:06.275Z,95112.56
2023-05-21T14:04:52.511Z,95103.44
2023-05-21T14:07:40.359Z,95105.81
2023-05-21T14:10:26.588Z,95102.75
2023-05-21T14:13:19.685Z,95109.47
2023-05-21T14:16:07.732Z,95099.31
2023-05-21T14:18:54.857Z,95107.28
2023-05-21T14:21:41.122Z,95115.22
2023-05-21T14:24:27.127Z,95113.34
2023-05-21T14:27:15.244Z,95116.19
2023-05-21T14:30:01.387Z,95109.88
2023-05-21T14:32:47.935Z,95115.38
2023-05-21T14:35:34.133Z,95114.13
2023-05-21T14:38:19.955Z,95096.34
2023-05-21T14:41:07.242Z,95108.91
2023-05-21T14:43:53.467Z,95106.50
2023-05-21T14:46:39.820Z,95101.75
2023-05-21T14:49:26.018Z,95105.59
2023-05-21T14:52:11.854Z,95106.72
2023-05-21T14:54:57.981Z,95100.34
2023-05-21T14:57:44.059Z,95101.44
2023-05-21T15:00:31.195Z,95096.44
2023-05-21T15:03:17.608Z,95097.63
2023-05-21T15:06:03.894Z,95086.41
2023-05-21T15:08:49.876Z,95083.03
2023-05-21T15:11:36.097Z,95085.31
2023-05-21T15:14:21.873Z,95086.81
2023-05-21T15:17:07.921Z,95087.66
2023-05-21T15:19:53.829Z,95097.53
2023-05-21T15:22:40.456Z,95090.59
2023-05-21T15:25:27.595Z,95091.91
2023-05-21T15:28:13.580Z,95082.53
2023-05-21T15:31:00.963Z,95091.28
2023-05-21T15:33:46.825Z,95094.56
2023-05-21T15:36:32.609Z,95096.69
2023-05-21T15:39:18.470Z,95099.66
2023-05-21T15:42:05.274Z,95101.34
2023-05-21T15:44:51.156Z,95090.44
2023-05-21T15:47:36.978Z,95091.31
2023-05-21T15:50:22.780Z,95087.50
2023-05-21T15:53:11.060Z,95093.09
2023-05-21T15:55:57.215Z,95099.91
2023-05-21T15:58:43.017Z,95096.03
2023-05-21T16:01:30.035Z,95087.84
2023-05-21T16:04:17.764Z,95093.03
2023-05-21T16:07:04.275Z,95097.44
2023-05-21T16:09:50.101Z,95101.38
2023-05-21T16:12:36.206Z,95099.88
2023-05-21T16:15:22.263Z,95107.78
2023-05-21T16:18:09.966Z,95108.63
2023-05-21T16:20:56.697Z,95107.50
2023-05-21T16:23:42.739Z,95102.78
2023-05-21T16:26:28.809Z,95105.56
2023-05-21T16:29:15.129Z,95104.81
2023-05-21T16:32:01.402Z,95104.81
2023-05-21T16:34:47.596Z,95104.84
2023-05-21T16:37:53.950Z,95080.91
2023-05-21T16:40:42.813Z,95103.31
2023-05-21T16:43:29.021Z,95114.72
2023-05-21T16:46:24.211Z,95106.09
2023-05-21T16:49:10.338Z,95111.22
2023-05-21T16:51:56.515Z,95108.84
2023-05-21T16:54:44.756Z,95106.53
2023-05-21T16:57:31.694Z,95109.69
2023-05-21T17:00:17.659Z,95118.34
2023-05-21T17:03:04.225Z,95110.50
2023-05-21T17:05:58.676Z,95108.94
2023-05-21T17:08:44.922Z,95116.84
2023-05-21T17:11:31.003Z,95120.78
2023-05-21T17:14:32.635Z,95125.09
2023-05-21T17:17:19.794Z,95125.06
2023-05-21T17:20:07.885Z,95105.78
2023-05-21T17:26:11.250Z,95102.66
2023-05-21T17:28:57.177Z,95108.97
2023-05-21T17:31:43.486Z,95113.31
2023-05-21T17:34:30.453Z,95104.25
2023-05-21T17:37:16.442Z,95120.00
2023-05-21T17:40:02.707Z,95122.75
2023-05-21T17:42:48.864Z,95118.03
2023-05-21T17:45:36.322Z,95119.22
2023-05-21T17:48:23.976Z,95117.63
2023-05-21T17:51:10.308Z,95114.09
2023-05-21T17:53:56.528Z,95106.63
2023-05-21T17:56:44.197Z,95104.25
2023-05-21T17:59:32.032Z,95104.25
2023-05-21T18:02:18.233Z,95097.19
2023-05-21T18:05:04.523Z,95098.38
2023-05-21T18:07:50.713Z,95098.38
2023-05-21T18:10:37.778Z,95094.41
2023-05-21T18:13:23.978Z,95097.19
2023-05-21T18:16:10.052Z,95105.06
2023-05-21T18:18:56.536Z,95110.56
2023-05-21T18:21:42.635Z,95119.22
2023-05-21T18:24:28.637Z,95125.06
2023-05-21T18:27:15.502Z,95129.41
2023-05-21T18:30:05.155Z,95131.75
2023-05-21T18:32:51.324Z,95140.00
2023-05-21T18:35:37.178Z,95144.31
2023-05-21T18:38:23.572Z,95135.63
2023-05-21T18:41:09.442Z,95145.06
2023-05-21T18:43:55.486Z,95140.34
2023-05-21T18:46:42.434Z,95145.03
2023-05-21T18:49:33.896Z,95147.78
2023-05-21T18:52:19.845Z,95156.41
2023-05-21T18:55:06.804Z,95154.06
2023-05-21T18:57:52.870Z,95164.25
2023-05-21T19:00:39.904Z,95165.81
2023-05-21T19:03:26.742Z,95164.63
2023-05-21T19:06:13.202Z,95169.34
2023-05-21T19:09:00.041Z,95162.22
2023-05-21T19:11:46.329Z,95177.19
2023-05-21T19:14:32.578Z,95185.81
2023-05-21T19:17:18.706Z,95185.03
2023-05-21T19:20:05.522Z,95180.28
2023-05-21T19:22:51.556Z,95181.47
2023-05-21T19:25:38.772Z,95184.59
2023-05-21T19:28:24.829Z,95185.78
2023-05-21T19:31:11.005Z,95188.13
2023-05-21T19:33:57.061Z,95186.56
2023-05-21T19:36:52.974Z,95190.84
2023-05-21T19:39:41.748Z,95190.47
2023-05-21T19:42:27.921Z,95191.66
2023-05-21T19:45:15.754Z,95199.91
2023-05-21T19:48:02.242Z,95199.09
2023-05-21T19:50:48.156Z,95195.53
2023-05-21T19:53:35.029Z,95205.38
2023-05-21T19:56:22.516Z,95202.22
2023-05-21T19:59:09.012Z,95203.78
2023-05-21T20:01:55.640Z,95201.41
2023-05-21T20:04:42.026Z,95198.59
2023-05-21T20:07:28.550Z,95215.50
2023-05-21T20:10:14.933Z,95204.09
2023-05-21T20:13:01.133Z,95213.94
2023-05-21T20:15:50.472Z,95217.06
2023-05-21T20:18:39.526Z,95215.44
2023-05-21T20:21:28.447Z,95220.16
2023-05-21T20:24:15.417Z,95217.78
2023-05-21T20:27:03.393Z,95219.34
2023-05-21T20:29:49.891Z,95216.94
2023-05-21T20:32:36.481Z,95223.22
2023-05-21T20:35:22.833Z,95223.97
2023-05-21T20:38:09.014Z,95220.81
2023-05-21T20:40:55.704Z,95228.25
2023-05-21T20:43:45.518Z,95218.34
2023-05-21T20:46:38.410Z,95221.47
2023-05-21T20:49:25.854Z,95230.13
2023-05-21T20:52:12.306Z,95220.63
2023-05-21T20:54:59.680Z,95214.25
2023-05-21T20:57:45.746Z,95225.19
2023-05-21T21:00:33.491Z,95232.63
2023-05-21T21:03:21.965Z,95232.09
2023-05-21T21:06:09.941Z,95222.63
2023-05-21T21:08:56.185Z,95217.81
2023-05-21T21:11:42.092Z,95222.50
2023-05-21T21:14:32.082Z,95233.38
2023-05-21T21:17:18.374Z,95230.91
2023-05-21T21:20:07.535Z,95234.00
2023-05-21T21:22:53.389Z,95219.34
2023-05-21T21:25:39.909Z,95223.59
2023-05-21T21:28:26.175Z,95230.59
2023-05-21T21:31:13.666Z,95234.03
2023-05-21T21:33:59.517Z,95232.44
2023-05-21T21:36:45.935Z,95230.47
2023-05-21T21:39:31.741Z,95228.41
2023-05-21T21:42:17.773Z,95238.59
2023-05-21T21:45:04.816Z,95233.88
2023-05-21T21:47:50.755Z,95227.91
2023-05-21T21:50:37.478Z,95225.53
2023-05-21T21:53:23.845Z,95217.97
2023-05-21T21:56:09.709Z,95224.59
2023-05-21T21:58:55.921Z,95230.84
2023-05-21T22:01:42.990Z,95234.38
2023-05-21T22:04:29.195Z,95242.56
2023-05-21T22:07:17.943Z,95238.22
2023-05-21T22:10:04.600Z,95230.72
2023-05-21T22:12:50.364Z,95231.38
2023-05-21T22:15:36.304Z,95233.69
2023-05-21T22:18:38.826Z,95226.63
2023-05-21T22:21:29.488Z,95239.50
2023-05-21T22:24:30.965Z,95234.44
2023-05-21T22:27:18.176Z,95229.28
2023-05-21T22:30:05.223Z,95230.13
2023-05-21T22:32:51.117Z,95228.97
2023-05-21T22:35:37.023Z,95231.28
2023-05-21T22:38:22.906Z,95224.16
2023-05-21T22:41:10.724Z,95231.28
2023-05-21T22:43:56.974Z,95229.69
2023-05-21T22:46:43.957Z,95231.13
2023-05-21T22:49:32.780Z,95236.22
2023-05-21T22:52:21.723Z,95236.56
2023-05-21T22:55:11.381Z,95224.81
2023-05-21T22:57:57.374Z,95232.69
2023-05-21T23:00:44.260Z,95232.69
2023-05-21T23:03:30.458Z,95240.50
2023-05-21T23:06:16.469Z,95235.03
2023-05-21T23:09:02.077Z,95229.16
2023-05-21T23:11:47.940Z,95230.66
2023-05-21T23:14:33.855Z,95235.78
2023-05-21T23:17:19.754Z,95216.88
2023-05-21T23:20:09.459Z,95232.19
2023-05-21T23:22:55.584Z,95229.44
2023-05-21T23:25:41.626Z,95223.25
2023-05-21T23:28:27.722Z,95231.03
2023-05-21T23:31:13.783Z,95229.44
2023-05-21T23:33:59.641Z,95220.81
2023-05-21T23:36:45.769Z,95223.16
2023-05-21T23:39:31.494Z,95221.94
2023-05-21T23:42:17.608Z,95221.56
2023-05-21T23:45:04.148Z,95215.22
2023-05-21T23:47:50.295Z,95213.66
2023-05-21T23:50:36.762Z,95218.69
2023-05-21T23:53:22.880Z,95218.25
2023-05-21T23:56:08.718Z,95219.75
2023-05-21T23:58:54.881Z,95227.53
